sensor_id;sensor_type;location;lat;lon;timestamp;P1;durP1;ratioP1;P2;durP2;ratioP2
3755;SDS011;1893;52.526;13.360;2022-08-11T00:01:35;5.93;;;2.00;;
3755;SDS011;1893;52.526;13.360;2022-08-11T00:04:07;4.63;;;2.20;;
3755;SDS011;1893;52.526;13.360;2022-08-11T00:06:36;4.90;;;2.20;;
3755;SDS011;1893;52.526;13.360;2022-08-11T00:09:04;2.13;;;1.93;;
3755;SDS011;1893;52.526;13.360;2022-08-11T00:11:48;3.03;;;1.93;;
3755;SDS011;1893;52.526;13.360;2022-08-11T00:14:19;3.73;;;2.27;;
3755;SDS011;1893;52.526;13.360;2022-08-11T00:16:55;2.43;;;2.23;;
3755;SDS011;1893;52.526;13.360;2022-08-11T00:19:23;4.40;;;2.17;;
3755;SDS011;1893;52.526;13.360;2022-08-11T00:21:54;3.13;;;2.23;;
3755;SDS011;1893;52.526;13.360;2022-08-11T00:24:21;2.83;;;2.33;;
3755;SDS011;1893;52.526;13.360;2022-08-11T00:26:50;4.10;;;2.37;;
3755;SDS011;1893;52.526;13.360;2022-08-11T00:29:19;3.43;;;2.80;;
3755;SDS011;1893;52.526;13.360;2022-08-11T00:31:55;5.73;;;3.03;;
3755;SDS011;1893;52.526;13.360;2022-08-11T00:34:26;8.70;;;2.47;;
3755;SDS011;1893;52.526;13.360;2022-08-11T00:36:59;3.00;;;2.33;;
3755;SDS011;1893;52.526;13.360;2022-08-11T00:39:30;6.40;;;2.40;;
3755;SDS011;1893;52.526;13.360;2022-08-11T00:44:42;3.30;;;2.67;;
3755;SDS011;1893;52.526;13.360;2022-08-11T00:47:17;3.73;;;1.93;;
3755;SDS011;1893;52.526;13.360;2022-08-11T00:49:54;1.70;;;1.60;;
3755;SDS011;1893;52.526;13.360;2022-08-11T01:37:15;4.20;;;2.23;;
3755;SDS011;1893;52.526;13.360;2022-08-11T01:40:19;4.90;;;2.60;;
3755;SDS011;1893;52.526;13.360;2022-08-11T01:42:55;3.90;;;2.10;;
3755;SDS011;1893;52.526;13.360;2022-08-11T01:51:07;2.23;;;2.03;;
3755;SDS011;1893;52.526;13.360;2022-08-11T02:05:13;6.00;;;2.40;;
3755;SDS011;1893;52.526;13.360;2022-08-11T02:07:59;3.30;;;2.17;;
3755;SDS011;1893;52.526;13.360;2022-08-11T02:10:37;3.27;;;2.37;;
3755;SDS011;1893;52.526;13.360;2022-08-11T02:16:14;6.10;;;3.07;;
3755;SDS011;1893;52.526;13.360;2022-08-11T02:22:01;2.70;;;2.13;;
3755;SDS011;1893;52.526;13.360;2022-08-11T02:27:24;4.60;;;2.37;;
3755;SDS011;1893;52.526;13.360;2022-08-11T02:30:04;2.97;;;2.60;;
3755;SDS011;1893;52.526;13.360;2022-08-11T02:40:48;4.70;;;2.60;;
3755;SDS011;1893;52.526;13.360;2022-08-11T02:43:34;8.27;;;2.50;;
3755;SDS011;1893;52.526;13.360;2022-08-11T02:46:28;3.40;;;2.40;;
3755;SDS011;1893;52.526;13.360;2022-08-11T02:51:54;4.40;;;2.77;;
3755;SDS011;1893;52.526;13.360;2022-08-11T02:54:35;15.43;;;3.23;;
3755;SDS011;1893;52.526;13.360;2022-08-11T02:57:20;4.60;;;3.33;;
3755;SDS011;1893;52.526;13.360;2022-08-11T03:00:05;4.90;;;2.60;;
3755;SDS011;1893;52.526;13.360;2022-08-11T03:05:20;5.77;;;3.40;;
3755;SDS011;1893;52.526;13.360;2022-08-11T03:08:04;10.20;;;2.90;;
3755;SDS011;1893;52.526;13.360;2022-08-11T03:13:41;3.83;;;3.03;;
3755;SDS011;1893;52.526;13.360;2022-08-11T03:16:45;3.97;;;2.90;;
3755;SDS011;1893;52.526;13.360;2022-08-11T03:35:44;4.97;;;3.60;;
3755;SDS011;1893;52.526;13.360;2022-08-11T03:38:33;6.00;;;3.37;;
3755;SDS011;1893;52.526;13.360;2022-08-11T03:44:17;3.77;;;2.67;;
3755;SDS011;1893;52.526;13.360;2022-08-11T03:49:36;3.40;;;3.10;;
3755;SDS011;1893;52.526;13.360;2022-08-11T03:52:32;5.83;;;3.17;;
3755;SDS011;1893;52.526;13.360;2022-08-11T03:55:18;4.00;;;3.60;;
3755;SDS011;1893;52.526;13.360;2022-08-11T04:16:00;3.67;;;2.70;;
3755;SDS011;1893;52.526;13.360;2022-08-11T04:24:39;6.83;;;3.70;;
3755;SDS011;1893;52.526;13.360;2022-08-11T04:36:09;5.83;;;4.00;;
3755;SDS011;1893;52.526;13.360;2022-08-11T04:51:24;6.77;;;4.17;;
3755;SDS011;1893;52.526;13.360;2022-08-11T04:54:52;6.27;;;3.83;;
3755;SDS011;1893;52.526;13.360;2022-08-11T05:00:53;9.30;;;4.60;;
3755;SDS011;1893;52.526;13.360;2022-08-11T05:07:19;7.93;;;4.13;;
3755;SDS011;1893;52.526;13.360;2022-08-11T05:10:28;10.13;;;4.67;;
3755;SDS011;1893;52.526;13.360;2022-08-11T05:13:02;10.77;;;4.70;;
3755;SDS011;1893;52.526;13.360;2022-08-11T05:15:52;5.67;;;4.63;;
3755;SDS011;1893;52.526;13.360;2022-08-11T05:18:46;11.30;;;4.83;;
3755;SDS011;1893;52.526;13.360;2022-08-11T05:21:53;7.20;;;5.20;;
3755;SDS011;1893;52.526;13.360;2022-08-11T05:24:44;6.77;;;4.70;;
3755;SDS011;1893;52.526;13.360;2022-08-11T05:28:27;7.30;;;5.13;;
3755;SDS011;1893;52.526;13.360;2022-08-11T05:30:45;6.83;;;4.80;;
3755;SDS011;1893;52.526;13.360;2022-08-11T05:37:10;4.60;;;4.20;;
3755;SDS011;1893;52.526;13.360;2022-08-11T05:39:40;6.30;;;5.70;;
3755;SDS011;1893;52.526;13.360;2022-08-11T05:42:30;10.07;;;5.80;;
3755;SDS011;1893;52.526;13.360;2022-08-11T05:45:16;7.50;;;5.47;;
3755;SDS011;1893;52.526;13.360;2022-08-11T05:48:02;6.43;;;5.40;;
3755;SDS011;1893;52.526;13.360;2022-08-11T05:50:54;6.90;;;6.10;;
3755;SDS011;1893;52.526;13.360;2022-08-11T05:53:42;9.57;;;5.40;;
3755;SDS011;1893;52.526;13.360;2022-08-11T05:56:30;12.07;;;5.60;;
3755;SDS011;1893;52.526;13.360;2022-08-11T05:58:57;7.07;;;4.90;;
3755;SDS011;1893;52.526;13.360;2022-08-11T06:01:24;9.90;;;5.07;;
3755;SDS011;1893;52.526;13.360;2022-08-11T06:03:55;7.90;;;4.80;;
3755;SDS011;1893;52.526;13.360;2022-08-11T06:09:32;9.00;;;5.93;;
3755;SDS011;1893;52.526;13.360;2022-08-11T06:12:06;6.27;;;5.67;;
3755;SDS011;1893;52.526;13.360;2022-08-11T06:14:43;5.37;;;4.90;;
3755;SDS011;1893;52.526;13.360;2022-08-11T06:17:10;12.83;;;11.63;;
3755;SDS011;1893;52.526;13.360;2022-08-11T06:19:38;8.63;;;5.70;;
3755;SDS011;1893;52.526;13.360;2022-08-11T06:22:07;7.23;;;5.37;;
3755;SDS011;1893;52.526;13.360;2022-08-11T06:24:36;8.70;;;6.07;;
3755;SDS011;1893;52.526;13.360;2022-08-11T06:27:05;10.23;;;5.73;;
3755;SDS011;1893;52.526;13.360;2022-08-11T06:29:33;13.23;;;5.33;;
3755;SDS011;1893;52.526;13.360;2022-08-11T06:32:06;14.20;;;6.37;;
3755;SDS011;1893;52.526;13.360;2022-08-11T06:34:57;13.23;;;5.27;;
3755;SDS011;1893;52.526;13.360;2022-08-11T06:40:25;8.37;;;5.20;;
3755;SDS011;1893;52.526;13.360;2022-08-11T06:42:56;9.87;;;5.30;;
3755;SDS011;1893;52.526;13.360;2022-08-11T06:48:22;5.10;;;4.57;;
3755;SDS011;1893;52.526;13.360;2022-08-11T06:50:49;6.23;;;5.63;;
3755;SDS011;1893;52.526;13.360;2022-08-11T06:53:38;5.53;;;4.90;;
3755;SDS011;1893;52.526;13.360;2022-08-11T06:56:15;8.37;;;4.93;;
3755;SDS011;1893;52.526;13.360;2022-08-11T06:59:19;8.70;;;4.50;;
3755;SDS011;1893;52.526;13.360;2022-08-11T07:02:14;8.03;;;5.27;;
3755;SDS011;1893;52.526;13.360;2022-08-11T07:04:58;8.77;;;5.07;;
3755;SDS011;1893;52.526;13.360;2022-08-11T07:10:45;9.80;;;5.80;;
3755;SDS011;1893;52.526;13.360;2022-08-11T07:13:50;10.23;;;5.17;;
3755;SDS011;1893;52.526;13.360;2022-08-11T07:16:36;15.67;;;5.10;;
3755;SDS011;1893;52.526;13.360;2022-08-11T07:19:08;8.47;;;4.70;;
3755;SDS011;1893;52.526;13.360;2022-08-11T07:21:54;8.40;;;4.80;;
3755;SDS011;1893;52.526;13.360;2022-08-11T07:24:41;11.90;;;5.40;;
3755;SDS011;1893;52.526;13.360;2022-08-11T07:27:36;6.97;;;5.17;;
3755;SDS011;1893;52.526;13.360;2022-08-11T07:30:27;9.60;;;4.73;;
3755;SDS011;1893;52.526;13.360;2022-08-11T07:32:55;6.63;;;4.77;;
3755;SDS011;1893;52.526;13.360;2022-08-11T07:35:30;11.63;;;4.90;;
3755;SDS011;1893;52.526;13.360;2022-08-11T07:38:03;8.13;;;5.53;;
3755;SDS011;1893;52.526;13.360;2022-08-11T07:40:31;7.03;;;4.53;;
3755;SDS011;1893;52.526;13.360;2022-08-11T07:42:58;9.97;;;5.57;;
3755;SDS011;1893;52.526;13.360;2022-08-11T07:45:26;7.50;;;5.13;;
3755;SDS011;1893;52.526;13.360;2022-08-11T07:48:11;12.27;;;4.10;;
3755;SDS011;1893;52.526;13.360;2022-08-11T07:50:57;8.20;;;5.10;;
3755;SDS011;1893;52.526;13.360;2022-08-11T07:53:43;6.80;;;5.20;;
3755;SDS011;1893;52.526;13.360;2022-08-11T07:56:09;8.90;;;5.60;;
3755;SDS011;1893;52.526;13.360;2022-08-11T07:58:39;6.53;;;5.13;;
3755;SDS011;1893;52.526;13.360;2022-08-11T08:01:24;9.17;;;4.73;;
3755;SDS011;1893;52.526;13.360;2022-08-11T08:04:10;7.40;;;4.37;;
3755;SDS011;1893;52.526;13.360;2022-08-11T08:06:56;5.03;;;4.53;;
3755;SDS011;1893;52.526;13.360;2022-08-11T08:09:41;9.87;;;4.67;;
3755;SDS011;1893;52.526;13.360;2022-08-11T08:12:26;6.10;;;4.50;;
3755;SDS011;1893;52.526;13.360;2022-08-11T08:15:13;4.80;;;4.40;;
3755;SDS011;1893;52.526;13.360;2022-08-11T08:17:59;4.60;;;4.00;;
3755;SDS011;1893;52.526;13.360;2022-08-11T08:20:30;5.27;;;4.00;;
3755;SDS011;1893;52.526;13.360;2022-08-11T08:23:01;8.27;;;4.40;;
3755;SDS011;1893;52.526;13.360;2022-08-11T08:25:29;9.43;;;4.23;;
3755;SDS011;1893;52.526;13.360;2022-08-11T08:27:58;5.33;;;3.90;;
3755;SDS011;1893;52.526;13.360;2022-08-11T08:30:26;6.17;;;4.67;;
3755;SDS011;1893;52.526;13.360;2022-08-11T08:33:11;5.90;;;4.20;;
3755;SDS011;1893;52.526;13.360;2022-08-11T08:35:44;4.70;;;4.20;;
3755;SDS011;1893;52.526;13.360;2022-08-11T08:38:12;6.03;;;3.93;;
3755;SDS011;1893;52.526;13.360;2022-08-11T08:40:39;8.33;;;4.50;;
3755;SDS011;1893;52.526;13.360;2022-08-11T08:43:08;11.27;;;4.87;;
3755;SDS011;1893;52.526;13.360;2022-08-11T08:45:39;7.10;;;4.40;;
3755;SDS011;1893;52.526;13.360;2022-08-11T08:48:13;4.30;;;3.97;;
3755;SDS011;1893;52.526;13.360;2022-08-11T08:50:47;4.30;;;3.90;;
3755;SDS011;1893;52.526;13.360;2022-08-11T08:53:38;7.90;;;4.00;;
3755;SDS011;1893;52.526;13.360;2022-08-11T08:56:05;5.00;;;3.30;;
3755;SDS011;1893;52.526;13.360;2022-08-11T08:58:33;6.90;;;4.17;;
3755;SDS011;1893;52.526;13.360;2022-08-11T09:01:02;5.63;;;4.40;;
3755;SDS011;1893;52.526;13.360;2022-08-11T09:03:28;13.70;;;3.83;;
3755;SDS011;1893;52.526;13.360;2022-08-11T09:05:54;4.33;;;3.90;;
3755;SDS011;1893;52.526;13.360;2022-08-11T09:08:20;12.70;;;4.00;;
3755;SDS011;1893;52.526;13.360;2022-08-11T09:10:47;9.13;;;3.90;;
3755;SDS011;1893;52.526;13.360;2022-08-11T09:13:32;3.93;;;3.67;;
3755;SDS011;1893;52.526;13.360;2022-08-11T09:15:59;4.63;;;3.67;;
3755;SDS011;1893;52.526;13.360;2022-08-11T09:18:26;4.13;;;3.17;;
3755;SDS011;1893;52.526;13.360;2022-08-11T09:20:52;5.33;;;4.00;;
3755;SDS011;1893;52.526;13.360;2022-08-11T09:23:18;8.90;;;3.93;;
3755;SDS011;1893;52.526;13.360;2022-08-11T09:26:03;4.10;;;3.80;;
3755;SDS011;1893;52.526;13.360;2022-08-11T09:28:47;5.43;;;3.50;;
3755;SDS011;1893;52.526;13.360;2022-08-11T09:31:14;4.03;;;2.90;;
3755;SDS011;1893;52.526;13.360;2022-08-11T09:33:41;4.33;;;3.00;;
3755;SDS011;1893;52.526;13.360;2022-08-11T09:36:08;4.20;;;3.80;;
3755;SDS011;1893;52.526;13.360;2022-08-11T09:38:54;3.60;;;3.30;;
3755;SDS011;1893;52.526;13.360;2022-08-11T09:41:39;4.83;;;3.87;;
3755;SDS011;1893;52.526;13.360;2022-08-11T09:44:07;3.50;;;3.17;;
3755;SDS011;1893;52.526;13.360;2022-08-11T09:46:52;6.93;;;3.40;;
3755;SDS011;1893;52.526;13.360;2022-08-11T09:49:22;3.73;;;3.50;;
3755;SDS011;1893;52.526;13.360;2022-08-11T09:51:47;8.27;;;3.20;;
3755;SDS011;1893;52.526;13.360;2022-08-11T09:54:14;3.87;;;2.90;;
3755;SDS011;1893;52.526;13.360;2022-08-11T09:56:41;4.73;;;3.30;;
3755;SDS011;1893;52.526;13.360;2022-08-11T09:59:27;4.60;;;3.10;;
3755;SDS011;1893;52.526;13.360;2022-08-11T10:01:56;2.90;;;2.70;;
3755;SDS011;1893;52.526;13.360;2022-08-11T10:04:26;3.17;;;2.87;;
3755;SDS011;1893;52.526;13.360;2022-08-11T10:07:02;12.87;;;3.53;;
3755;SDS011;1893;52.526;13.360;2022-08-11T10:12:27;5.10;;;3.23;;
3755;SDS011;1893;52.526;13.360;2022-08-11T10:15:04;4.43;;;3.57;;
3755;SDS011;1893;52.526;13.360;2022-08-11T10:17:52;4.80;;;3.40;;
3755;SDS011;1893;52.526;13.360;2022-08-11T10:20:40;3.90;;;3.60;;
3755;SDS011;1893;52.526;13.360;2022-08-11T10:23:09;4.40;;;2.93;;
3755;SDS011;1893;52.526;13.360;2022-08-11T10:25:55;3.87;;;2.90;;
3755;SDS011;1893;52.526;13.360;2022-08-11T10:28:40;3.33;;;3.03;;
3755;SDS011;1893;52.526;13.360;2022-08-11T10:31:06;3.50;;;3.20;;
3755;SDS011;1893;52.526;13.360;2022-08-11T10:33:50;4.17;;;3.03;;
3755;SDS011;1893;52.526;13.360;2022-08-11T10:39:09;3.43;;;3.13;;
3755;SDS011;1893;52.526;13.360;2022-08-11T10:41:41;4.70;;;3.10;;
3755;SDS011;1893;52.526;13.360;2022-08-11T10:44:39;3.20;;;3.00;;
3755;SDS011;1893;52.526;13.360;2022-08-11T10:47:11;3.30;;;3.00;;
3755;SDS011;1893;52.526;13.360;2022-08-11T10:49:57;5.40;;;3.20;;
3755;SDS011;1893;52.526;13.360;2022-08-11T10:52:43;2.90;;;2.70;;
3755;SDS011;1893;52.526;13.360;2022-08-11T10:55:29;5.87;;;3.13;;
3755;SDS011;1893;52.526;13.360;2022-08-11T10:58:14;3.63;;;3.10;;
3755;SDS011;1893;52.526;13.360;2022-08-11T11:01:00;4.77;;;3.43;;
3755;SDS011;1893;52.526;13.360;2022-08-11T11:03:27;3.73;;;2.33;;
3755;SDS011;1893;52.526;13.360;2022-08-11T11:05:56;7.17;;;3.50;;
3755;SDS011;1893;52.526;13.360;2022-08-11T11:08:29;3.87;;;2.97;;
3755;SDS011;1893;52.526;13.360;2022-08-11T11:11:15;3.60;;;3.30;;
3755;SDS011;1893;52.526;13.360;2022-08-11T11:13:44;2.87;;;2.50;;
3755;SDS011;1893;52.526;13.360;2022-08-11T11:16:31;3.27;;;2.97;;
3755;SDS011;1893;52.526;13.360;2022-08-11T11:19:14;3.10;;;2.90;;
3755;SDS011;1893;52.526;13.360;2022-08-11T11:21:44;3.70;;;3.40;;
3755;SDS011;1893;52.526;13.360;2022-08-11T11:24:29;5.40;;;3.53;;
3755;SDS011;1893;52.526;13.360;2022-08-11T11:27:20;2.87;;;2.60;;
3755;SDS011;1893;52.526;13.360;2022-08-11T11:30:11;2.77;;;2.57;;
3755;SDS011;1893;52.526;13.360;2022-08-11T11:37:56;6.27;;;3.60;;
3755;SDS011;1893;52.526;13.360;2022-08-11T11:40:23;3.80;;;3.13;;
3755;SDS011;1893;52.526;13.360;2022-08-11T11:42:50;3.43;;;3.03;;
3755;SDS011;1893;52.526;13.360;2022-08-11T11:45:18;3.23;;;3.03;;
3755;SDS011;1893;52.526;13.360;2022-08-11T11:47:46;2.87;;;2.67;;
3755;SDS011;1893;52.526;13.360;2022-08-11T11:50:16;4.77;;;3.93;;
3755;SDS011;1893;52.526;13.360;2022-08-11T11:52:47;6.47;;;3.77;;
3755;SDS011;1893;52.526;13.360;2022-08-11T11:55:16;3.40;;;3.10;;
3755;SDS011;1893;52.526;13.360;2022-08-11T11:57:43;8.10;;;3.40;;
3755;SDS011;1893;52.526;13.360;2022-08-11T12:00:28;6.60;;;3.43;;
3755;SDS011;1893;52.526;13.360;2022-08-11T12:03:13;4.13;;;3.03;;
3755;SDS011;1893;52.526;13.360;2022-08-11T12:05:39;5.07;;;3.00;;
3755;SDS011;1893;52.526;13.360;2022-08-11T12:08:07;3.70;;;3.40;;
3755;SDS011;1893;52.526;13.360;2022-08-11T12:10:44;6.63;;;3.80;;
3755;SDS011;1893;52.526;13.360;2022-08-11T12:13:36;4.07;;;3.40;;
3755;SDS011;1893;52.526;13.360;2022-08-11T12:16:07;3.63;;;3.33;;
3755;SDS011;1893;52.526;13.360;2022-08-11T12:18:34;3.60;;;3.40;;
3755;SDS011;1893;52.526;13.360;2022-08-11T12:21:02;3.40;;;2.87;;
3755;SDS011;1893;52.526;13.360;2022-08-11T12:23:28;3.43;;;3.17;;
3755;SDS011;1893;52.526;13.360;2022-08-11T12:26:16;3.70;;;2.97;;
3755;SDS011;1893;52.526;13.360;2022-08-11T12:29:01;3.43;;;2.50;;
3755;SDS011;1893;52.526;13.360;2022-08-11T12:31:29;4.50;;;3.73;;
3755;SDS011;1893;52.526;13.360;2022-08-11T12:34:12;7.53;;;3.37;;
3755;SDS011;1893;52.526;13.360;2022-08-11T12:39:10;5.43;;;3.60;;
3755;SDS011;1893;52.526;13.360;2022-08-11T12:41:37;3.50;;;3.20;;
3755;SDS011;1893;52.526;13.360;2022-08-11T12:44:24;6.30;;;3.20;;
3755;SDS011;1893;52.526;13.360;2022-08-11T12:47:11;3.50;;;2.70;;
3755;SDS011;1893;52.526;13.360;2022-08-11T12:49:43;2.77;;;2.47;;
3755;SDS011;1893;52.526;13.360;2022-08-11T12:52:32;3.37;;;3.07;;
3755;SDS011;1893;52.526;13.360;2022-08-11T12:58:14;6.20;;;2.80;;
3755;SDS011;1893;52.526;13.360;2022-08-11T13:00:41;6.37;;;2.73;;
3755;SDS011;1893;52.526;13.360;2022-08-11T13:03:29;3.00;;;2.80;;
3755;SDS011;1893;52.526;13.360;2022-08-11T13:06:15;2.83;;;2.63;;
3755;SDS011;1893;52.526;13.360;2022-08-11T13:08:43;3.20;;;3.00;;
3755;SDS011;1893;52.526;13.360;2022-08-11T13:11:10;3.80;;;3.50;;
3755;SDS011;1893;52.526;13.360;2022-08-11T13:13:55;3.43;;;2.77;;
3755;SDS011;1893;52.526;13.360;2022-08-11T13:16:23;5.70;;;3.30;;
3755;SDS011;1893;52.526;13.360;2022-08-11T13:18:52;4.27;;;3.20;;
3755;SDS011;1893;52.526;13.360;2022-08-11T13:21:18;4.20;;;3.00;;
3755;SDS011;1893;52.526;13.360;2022-08-11T13:23:45;6.20;;;2.67;;
3755;SDS011;1893;52.526;13.360;2022-08-11T13:26:11;3.20;;;2.93;;
3755;SDS011;1893;52.526;13.360;2022-08-11T13:28:38;3.30;;;3.10;;
3755;SDS011;1893;52.526;13.360;2022-08-11T13:31:05;3.30;;;3.00;;
3755;SDS011;1893;52.526;13.360;2022-08-11T13:33:40;2.87;;;2.60;;
3755;SDS011;1893;52.526;13.360;2022-08-11T13:36:08;4.30;;;2.80;;
3755;SDS011;1893;52.526;13.360;2022-08-11T13:38:36;4.67;;;4.00;;
3755;SDS011;1893;52.526;13.360;2022-08-11T13:41:05;2.40;;;2.20;;
3755;SDS011;1893;52.526;13.360;2022-08-11T13:43:51;2.90;;;2.70;;
3755;SDS011;1893;52.526;13.360;2022-08-11T13:46:20;2.57;;;2.37;;
3755;SDS011;1893;52.526;13.360;2022-08-11T13:48:48;3.27;;;2.47;;
3755;SDS011;1893;52.526;13.360;2022-08-11T13:51:15;3.17;;;2.60;;
3755;SDS011;1893;52.526;13.360;2022-08-11T13:54:00;3.30;;;3.07;;
3755;SDS011;1893;52.526;13.360;2022-08-11T13:56:41;5.63;;;2.50;;
3755;SDS011;1893;52.526;13.360;2022-08-11T13:59:08;5.53;;;2.13;;
3755;SDS011;1893;52.526;13.360;2022-08-11T14:01:37;2.60;;;2.40;;
3755;SDS011;1893;52.526;13.360;2022-08-11T14:04:09;4.70;;;2.40;;
3755;SDS011;1893;52.526;13.360;2022-08-11T14:06:37;6.90;;;2.00;;
3755;SDS011;1893;52.526;13.360;2022-08-11T14:09:08;2.50;;;2.30;;
3755;SDS011;1893;52.526;13.360;2022-08-11T14:11:36;3.33;;;2.43;;
3755;SDS011;1893;52.526;13.360;2022-08-11T14:14:26;3.13;;;1.70;;
3755;SDS011;1893;52.526;13.360;2022-08-11T14:16:57;5.23;;;2.03;;
3755;SDS011;1893;52.526;13.360;2022-08-11T14:19:28;2.37;;;2.13;;
3755;SDS011;1893;52.526;13.360;2022-08-11T14:21:56;2.43;;;2.23;;
3755;SDS011;1893;52.526;13.360;2022-08-11T14:24:31;4.30;;;2.53;;
3755;SDS011;1893;52.526;13.360;2022-08-11T14:27:13;3.93;;;2.20;;
3755;SDS011;1893;52.526;13.360;2022-08-11T14:29:41;3.07;;;1.70;;
3755;SDS011;1893;52.526;13.360;2022-08-11T14:32:08;2.87;;;2.50;;
3755;SDS011;1893;52.526;13.360;2022-08-11T14:34:38;2.10;;;1.90;;
3755;SDS011;1893;52.526;13.360;2022-08-11T14:37:07;2.50;;;2.30;;
3755;SDS011;1893;52.526;13.360;2022-08-11T14:39:47;4.70;;;2.00;;
3755;SDS011;1893;52.526;13.360;2022-08-11T14:42:16;2.73;;;2.23;;
3755;SDS011;1893;52.526;13.360;2022-08-11T14:45:03;4.30;;;1.93;;
3755;SDS011;1893;52.526;13.360;2022-08-11T14:47:58;4.00;;;1.50;;
3755;SDS011;1893;52.526;13.360;2022-08-11T14:50:28;5.17;;;2.03;;
3755;SDS011;1893;52.526;13.360;2022-08-11T14:52:57;4.17;;;1.70;;
3755;SDS011;1893;52.526;13.360;2022-08-11T14:55:25;1.83;;;1.73;;
3755;SDS011;1893;52.526;13.360;2022-08-11T14:58:19;3.80;;;2.17;;
3755;SDS011;1893;52.526;13.360;2022-08-11T15:00:49;6.13;;;2.30;;
3755;SDS011;1893;52.526;13.360;2022-08-11T15:03:17;2.63;;;2.03;;
3755;SDS011;1893;52.526;13.360;2022-08-11T15:05:44;2.40;;;1.77;;
3755;SDS011;1893;52.526;13.360;2022-08-11T15:08:18;1.63;;;1.53;;
3755;SDS011;1893;52.526;13.360;2022-08-11T15:10:45;5.70;;;2.13;;
3755;SDS011;1893;52.526;13.360;2022-08-11T15:13:16;4.97;;;1.53;;
3755;SDS011;1893;52.526;13.360;2022-08-11T15:15:42;2.00;;;1.90;;
3755;SDS011;1893;52.526;13.360;2022-08-11T15:18:27;7.10;;;1.80;;
3755;SDS011;1893;52.526;13.360;2022-08-11T15:20:55;3.07;;;1.77;;
3755;SDS011;1893;52.526;13.360;2022-08-11T15:23:39;3.37;;;1.53;;
3755;SDS011;1893;52.526;13.360;2022-08-11T15:26:36;3.13;;;1.40;;
3755;SDS011;1893;52.526;13.360;2022-08-11T15:29:22;1.60;;;1.43;;
3755;SDS011;1893;52.526;13.360;2022-08-11T15:32:11;2.17;;;1.60;;
3755;SDS011;1893;52.526;13.360;2022-08-11T15:34:46;3.37;;;1.57;;
3755;SDS011;1893;52.526;13.360;2022-08-11T15:37:35;3.73;;;1.60;;
3755;SDS011;1893;52.526;13.360;2022-08-11T15:40:07;3.27;;;1.93;;
3755;SDS011;1893;52.526;13.360;2022-08-11T15:43:15;7.60;;;1.80;;
3755;SDS011;1893;52.526;13.360;2022-08-11T15:46:09;2.07;;;1.63;;
3755;SDS011;1893;52.526;13.360;2022-08-11T15:48:51;7.63;;;1.90;;
3755;SDS011;1893;52.526;13.360;2022-08-11T15:51:31;1.63;;;1.37;;
3755;SDS011;1893;52.526;13.360;2022-08-11T15:54:06;2.63;;;1.80;;
3755;SDS011;1893;52.526;13.360;2022-08-11T15:56:36;5.67;;;1.40;;
3755;SDS011;1893;52.526;13.360;2022-08-11T15:59:06;2.00;;;1.30;;
3755;SDS011;1893;52.526;13.360;2022-08-11T16:01:54;3.73;;;1.73;;
3755;SDS011;1893;52.526;13.360;2022-08-11T16:04:40;3.63;;;1.60;;
3755;SDS011;1893;52.526;13.360;2022-08-11T16:07:08;1.60;;;1.50;;
3755;SDS011;1893;52.526;13.360;2022-08-11T16:12:45;2.23;;;1.70;;
3755;SDS011;1893;52.526;13.360;2022-08-11T16:15:27;2.77;;;1.83;;
3755;SDS011;1893;52.526;13.360;2022-08-11T16:18:13;2.27;;;1.37;;
3755;SDS011;1893;52.526;13.360;2022-08-11T16:20:43;1.73;;;1.63;;
3755;SDS011;1893;52.526;13.360;2022-08-11T16:23:09;2.40;;;1.30;;
3755;SDS011;1893;52.526;13.360;2022-08-11T16:25:38;2.33;;;1.50;;
3755;SDS011;1893;52.526;13.360;2022-08-11T16:28:05;2.20;;;1.50;;
3755;SDS011;1893;52.526;13.360;2022-08-11T16:30:33;1.57;;;1.47;;
3755;SDS011;1893;52.526;13.360;2022-08-11T16:33:01;3.30;;;1.33;;
3755;SDS011;1893;52.526;13.360;2022-08-11T16:35:32;2.43;;;1.47;;
3755;SDS011;1893;52.526;13.360;2022-08-11T16:38:18;1.77;;;1.30;;
3755;SDS011;1893;52.526;13.360;2022-08-11T16:41:00;3.10;;;1.00;;
3755;SDS011;1893;52.526;13.360;2022-08-11T16:43:30;1.70;;;1.60;;
3755;SDS011;1893;52.526;13.360;2022-08-11T16:46:16;3.30;;;1.80;;
3755;SDS011;1893;52.526;13.360;2022-08-11T16:49:03;3.40;;;2.37;;
3755;SDS011;1893;52.526;13.360;2022-08-11T16:51:30;1.70;;;1.60;;
3755;SDS011;1893;52.526;13.360;2022-08-11T16:53:57;4.30;;;1.93;;
3755;SDS011;1893;52.526;13.360;2022-08-11T16:56:33;7.70;;;2.30;;
3755;SDS011;1893;52.526;13.360;2022-08-11T16:59:02;2.60;;;1.80;;
3755;SDS011;1893;52.526;13.360;2022-08-11T17:01:40;4.07;;;1.80;;
3755;SDS011;1893;52.526;13.360;2022-08-11T17:04:16;3.57;;;2.23;;
3755;SDS011;1893;52.526;13.360;2022-08-11T17:07:21;2.83;;;2.10;;
3755;SDS011;1893;52.526;13.360;2022-08-11T17:10:14;5.30;;;1.60;;
3755;SDS011;1893;52.526;13.360;2022-08-11T17:13:09;2.93;;;2.33;;
3755;SDS011;1893;52.526;13.360;2022-08-11T17:15:49;5.30;;;1.77;;
3755;SDS011;1893;52.526;13.360;2022-08-11T17:18:31;2.90;;;1.47;;
3755;SDS011;1893;52.526;13.360;2022-08-11T17:21:29;3.87;;;1.83;;
3755;SDS011;1893;52.526;13.360;2022-08-11T17:24:00;3.50;;;1.33;;
3755;SDS011;1893;52.526;13.360;2022-08-11T17:26:34;3.43;;;1.80;;
3755;SDS011;1893;52.526;13.360;2022-08-11T17:29:26;2.50;;;1.83;;
3755;SDS011;1893;52.526;13.360;2022-08-11T17:32:02;4.70;;;1.67;;
3755;SDS011;1893;52.526;13.360;2022-08-11T17:34:49;2.23;;;1.93;;
3755;SDS011;1893;52.526;13.360;2022-08-11T17:37:37;4.33;;;1.80;;
3755;SDS011;1893;52.526;13.360;2022-08-11T17:40:05;2.10;;;1.60;;
3755;SDS011;1893;52.526;13.360;2022-08-11T17:42:33;1.70;;;1.60;;
3755;SDS011;1893;52.526;13.360;2022-08-11T17:45:18;1.60;;;1.50;;
3755;SDS011;1893;52.526;13.360;2022-08-11T17:48:04;2.30;;;1.37;;
3755;SDS011;1893;52.526;13.360;2022-08-11T17:50:48;3.97;;;1.73;;
3755;SDS011;1893;52.526;13.360;2022-08-11T17:53:16;5.13;;;1.37;;
3755;SDS011;1893;52.526;13.360;2022-08-11T17:56:01;2.97;;;2.33;;
3755;SDS011;1893;52.526;13.360;2022-08-11T17:58:47;2.87;;;1.97;;
3755;SDS011;1893;52.526;13.360;2022-08-11T18:01:36;3.97;;;1.70;;
3755;SDS011;1893;52.526;13.360;2022-08-11T18:04:05;5.57;;;1.70;;
3755;SDS011;1893;52.526;13.360;2022-08-11T18:06:33;3.20;;;1.40;;
3755;SDS011;1893;52.526;13.360;2022-08-11T18:09:04;7.40;;;1.80;;
3755;SDS011;1893;52.526;13.360;2022-08-11T18:11:52;1.70;;;1.60;;
3755;SDS011;1893;52.526;13.360;2022-08-11T18:14:38;2.27;;;1.80;;
3755;SDS011;1893;52.526;13.360;2022-08-11T18:17:26;3.83;;;2.00;;
3755;SDS011;1893;52.526;13.360;2022-08-11T18:20:10;3.17;;;2.03;;
3755;SDS011;1893;52.526;13.360;2022-08-11T18:22:54;9.13;;;1.80;;
3755;SDS011;1893;52.526;13.360;2022-08-11T18:25:41;1.80;;;1.67;;
3755;SDS011;1893;52.526;13.360;2022-08-11T18:28:46;1.97;;;1.40;;
3755;SDS011;1893;52.526;13.360;2022-08-11T18:31:36;3.43;;;1.60;;
3755;SDS011;1893;52.526;13.360;2022-08-11T18:34:27;6.27;;;2.20;;
3755;SDS011;1893;52.526;13.360;2022-08-11T18:37:18;4.20;;;1.83;;
3755;SDS011;1893;52.526;13.360;2022-08-11T18:40:10;2.73;;;2.03;;
3755;SDS011;1893;52.526;13.360;2022-08-11T18:42:59;5.87;;;1.70;;
3755;SDS011;1893;52.526;13.360;2022-08-11T18:45:48;3.10;;;2.20;;
3755;SDS011;1893;52.526;13.360;2022-08-11T18:48:36;2.40;;;2.20;;
3755;SDS011;1893;52.526;13.360;2022-08-11T18:51:23;5.53;;;2.30;;
3755;SDS011;1893;52.526;13.360;2022-08-11T18:54:09;3.27;;;2.20;;
3755;SDS011;1893;52.526;13.360;2022-08-11T18:56:55;2.13;;;1.70;;
3755;SDS011;1893;52.526;13.360;2022-08-11T18:59:43;2.70;;;2.03;;
3755;SDS011;1893;52.526;13.360;2022-08-11T19:02:29;2.33;;;1.97;;
3755;SDS011;1893;52.526;13.360;2022-08-11T19:05:17;9.50;;;2.17;;
3755;SDS011;1893;52.526;13.360;2022-08-11T19:08:03;3.03;;;2.00;;
3755;SDS011;1893;52.526;13.360;2022-08-11T19:10:49;3.27;;;2.13;;
3755;SDS011;1893;52.526;13.360;2022-08-11T19:13:34;2.87;;;2.37;;
3755;SDS011;1893;52.526;13.360;2022-08-11T19:16:20;2.67;;;1.93;;
3755;SDS011;1893;52.526;13.360;2022-08-11T19:19:07;4.63;;;2.50;;
3755;SDS011;1893;52.526;13.360;2022-08-11T19:21:52;2.37;;;2.20;;
3755;SDS011;1893;52.526;13.360;2022-08-11T19:24:38;4.77;;;2.00;;
3755;SDS011;1893;52.526;13.360;2022-08-11T19:27:23;2.70;;;2.37;;